PAL737 RPVE-RPLL
Flight info
| Callsign | PAL737 |
|---|---|
| Flight time | N/A |
| Altitude | 22000 |
| Route | MINOR B473 LAIYA LAIYA1A |
| Aircraft | B738/M-SABDFGRVYL/LB2 |
Departure
| Time | 2026-05-04 12:46 |
|---|---|
| Airport | Godofredo P. Ramos Airport (RPVE) |
Arrival
| Time | N/A |
|---|---|
| Airport | Ninoy Aquino International Airport (RPLL) |
| Time | Latitude | Longitude | Altitude | Speed | Heading |
|---|---|---|---|---|---|
| 2026-05-04 12:37 | 11.92623 | 121.96310 | 13 ft | 0 kts | 152° |
| 2026-05-04 12:40 | 11.92622 | 121.96313 | 13 ft | 1 kts | 103° |
| 2026-05-04 12:40 | 11.92632 | 121.96313 | 13 ft | 3 kts | 330° |
| 2026-05-04 12:41 | 11.92652 | 121.96306 | 13 ft | 3 kts | 7° |
| 2026-05-04 12:41 | 11.92679 | 121.96330 | 13 ft | 5 kts | 51° |
| 2026-05-04 12:41 | 11.92696 | 121.96361 | 13 ft | 4 kts | 64° |
| 2026-05-04 12:41 | 11.92698 | 121.96365 | 13 ft | 4 kts | 64° |
| 2026-05-04 12:42 | 11.92699 | 121.96366 | 13 ft | 4 kts | 64° |
| 2026-05-04 12:42 | 11.92721 | 121.96412 | 13 ft | 10 kts | 64° |
| 2026-05-04 12:42 | 11.92760 | 121.96489 | 13 ft | 12 kts | 62° |
| 2026-05-04 12:42 | 11.92818 | 121.96532 | 13 ft | 10 kts | 344° |
| 2026-05-04 12:43 | 11.92833 | 121.96526 | 13 ft | 1 kts | 332° |
| 2026-05-04 12:43 | 11.92834 | 121.96525 | 13 ft | 0 kts | 332° |
| 2026-05-04 12:43 | 11.92837 | 121.96523 | 13 ft | 4 kts | 332° |
| 2026-05-04 12:43 | 11.92879 | 121.96500 | 13 ft | 7 kts | 333° |
| 2026-05-04 12:44 | 11.92920 | 121.96479 | 13 ft | 6 kts | 333° |
| 2026-05-04 12:44 | 11.92955 | 121.96461 | 13 ft | 5 kts | 333° |
| 2026-05-04 12:44 | 11.92974 | 121.96440 | 13 ft | 3 kts | 276° |
| 2026-05-04 12:44 | 11.92971 | 121.96429 | 13 ft | 0 kts | 242° |
| 2026-05-04 12:45 | 11.92970 | 121.96427 | 13 ft | 0 kts | 242° |
| 2026-05-04 12:45 | 11.92967 | 121.96423 | 13 ft | 0 kts | 241° |
| 2026-05-04 12:45 | 11.92957 | 121.96403 | 13 ft | 18 kts | 242° |
| 2026-05-04 12:45 | 11.92753 | 121.95998 | 13 ft | 106 kts | 243° |
| 2026-05-04 12:46 | 11.92308 | 121.95108 | 75 ft | 167 kts | 243° |
| 2026-05-04 12:46 | 11.91789 | 121.94086 | 1004 ft | 161 kts | 241° |
| 2026-05-04 12:46 | 11.91241 | 121.93131 | 1829 ft | 161 kts | 243° |
| 2026-05-04 12:46 | 11.91061 | 121.92081 | 2453 ft | 160 kts | 283° |
| 2026-05-04 12:47 | 11.91597 | 121.91212 | 3049 ft | 158 kts | 326° |
| 2026-05-04 12:47 | 11.92445 | 121.90861 | 3584 ft | 156 kts | 353° |
| 2026-05-04 12:47 | 11.93516 | 121.90800 | 4216 ft | 153 kts | 359° |